TimeMDT,TemperatureF,Dew PointF,Humidity,Sea Level PressureIn,VisibilityMPH,Wind Direction,Wind SpeedMPH,Gust SpeedMPH,PrecipitationIn,Events,Conditions,WindDirDegrees,DateUTC
12:53 AM,52.0,37.0,57,30.14,10.0,Calm,Calm,-,N/A,,Scattered Clouds,0,2013-05-10 06:53:00
1:53 AM,53.1,37.0,55,30.15,10.0,Calm,Calm,-,N/A,,Clear,0,2013-05-10 07:53:00
2:53 AM,51.1,36.0,56,30.17,10.0,SW,5.8,-,N/A,,Clear,230,2013-05-10 08:53:00
3:53 AM,46.9,36.0,66,30.20,10.0,NW,3.5,-,N/A,,Clear,320,2013-05-10 09:53:00
4:53 AM,46.9,36.0,66,30.19,10.0,Calm,Calm,-,N/A,,Clear,0,2013-05-10 10:53:00
5:53 AM,44.6,35.6,71,30.21,10.0,Calm,Calm,-,N/A,,Clear,0,2013-05-10 11:53:00
6:53 AM,42.1,36.0,79,30.29,10.0,SSW,4.6,-,N/A,,Clear,210,2013-05-10 12:53:00
7:53 AM,55.9,33.1,42,30.32,10.0,North,13.8,18.4,N/A,,Clear,360,2013-05-10 13:53:00
8:53 AM,54.0,34.0,47,30.39,10.0,NNW,20.7,31.1,N/A,,Clear,340,2013-05-10 14:53:00
9:53 AM,55.0,34.0,45,30.41,10.0,North,25.3,34.5,N/A,,Clear,350,2013-05-10 15:53:00
10:53 AM,55.4,33.8,44,30.41,10.0,North,16.1,25.3,N/A,,Clear,360,2013-05-10 16:53:00
11:53 AM,59.0,35.1,41,30.42,10.0,North,8.1,17.3,N/A,,Clear,350,2013-05-10 17:53:00
12:53 PM,61.0,35.1,38,30.40,10.0,NW,10.4,-,N/A,,Clear,320,2013-05-10 18:53:00
1:53 PM,63.0,34.0,34,30.38,10.0,Variable,4.6,-,N/A,,Clear,0,2013-05-10 19:53:00
2:53 PM,64.9,33.1,31,30.35,10.0,Variable,6.9,-,N/A,,Clear,0,2013-05-10 20:53:00
3:53 PM,66.9,32.0,27,30.32,10.0,Variable,5.8,-,N/A,,Clear,0,2013-05-10 21:53:00
4:53 PM,68.0,30.9,25,30.31,10.0,North,6.9,-,N/A,,Clear,350,2013-05-10 22:53:00
5:53 PM,68.0,28.9,23,30.31,10.0,Variable,6.9,-,N/A,,Clear,0,2013-05-10 23:53:00
6:53 PM,66.9,28.9,24,30.30,10.0,NNE,9.2,-,N/A,,Clear,20,2013-05-11 00:53:00
7:53 PM,64.0,33.1,31,30.28,10.0,North,6.9,-,N/A,,Clear,350,2013-05-11 01:53:00
8:53 PM,57.9,32.0,37,30.32,10.0,NNW,6.9,-,N/A,,Clear,330,2013-05-11 02:53:00
9:53 PM,55.9,32.0,40,30.34,10.0,West,8.1,-,N/A,,Clear,270,2013-05-11 03:53:00
10:53 PM,54.0,32.0,43,30.35,10.0,West,9.2,-,N/A,,Clear,260,2013-05-11 04:53:00
11:53 PM,53.1,30.9,43,30.36,10.0,WSW,9.2,-,N/A,,Clear,250,2013-05-11 05:53:00